Culver, Kentucky
Current Conditions -  °F | °C
As of 3:30 PM on Monday 24 Nov 2014 (Local Time) from KSYM Reporting Station
Scattered Clouds Scattered Clouds  
Wind Chill: 55°   Ceiling: Unl
Heat Index: 55°   Visibility: 10mi
Dew Point: 43°   Wind: 12mph
Humidity: 63%   Direction: 260°W
Pressure: 29.73"   Gusts: 24mph
Location:  38.1397°N, 83.158°W
Report Text: KSYM 242030Z AUTO 26010G21KT 240V300 10SM SCT035 13/06 A2973 RMK AO2
Loading
Personal Weather Stations






























Interactive Weather Map New forecast layout! Learn more

10-Day Weather Forecast

Advertisements
Track Severe Weather on mobile